sensor_id;sensor_type;location;lat;lon;timestamp;P1;durP1;ratioP1;P2;durP2;ratioP2
10440;SDS011;5268;49.346;9.522;2023-05-24T03:10:15;9.75;;;4.10;;
10440;SDS011;5268;49.346;9.522;2023-05-24T03:15:17;8.45;;;4.28;;
10440;SDS011;5268;49.346;9.522;2023-05-24T03:20:19;12.43;;;4.07;;
10440;SDS011;5268;49.346;9.522;2023-05-24T03:25:24;9.18;;;4.00;;
10440;SDS011;5268;49.346;9.522;2023-05-24T03:30:27;8.32;;;4.07;;
10440;SDS011;5268;49.346;9.522;2023-05-24T03:35:29;10.98;;;4.13;;
10440;SDS011;5268;49.346;9.522;2023-05-24T03:40:32;8.40;;;3.92;;
10440;SDS011;5268;49.346;9.522;2023-05-24T03:45:35;7.38;;;3.60;;
10440;SDS011;5268;49.346;9.522;2023-05-24T03:50:37;9.48;;;4.53;;
10440;SDS011;5268;49.346;9.522;2023-05-24T03:55:41;9.45;;;3.90;;
10440;SDS011;5268;49.346;9.522;2023-05-24T04:00:43;8.38;;;4.00;;
10440;SDS011;5268;49.346;9.522;2023-05-24T04:05:45;9.20;;;4.25;;
10440;SDS011;5268;49.346;9.522;2023-05-24T04:10:48;9.60;;;3.55;;
10440;SDS011;5268;49.346;9.522;2023-05-24T04:15:50;7.45;;;3.90;;
10440;SDS011;5268;49.346;9.522;2023-05-24T04:20:52;13.40;;;3.90;;
10440;SDS011;5268;49.346;9.522;2023-05-24T04:25:56;10.23;;;4.07;;
10440;SDS011;5268;49.346;9.522;2023-05-24T04:30:58;6.60;;;3.75;;
10440;SDS011;5268;49.346;9.522;2023-05-24T04:36:00;11.13;;;3.70;;
10440;SDS011;5268;49.346;9.522;2023-05-24T04:41:04;12.13;;;4.00;;
10440;SDS011;5268;49.346;9.522;2023-05-24T04:46:07;11.27;;;4.38;;
10440;SDS011;5268;49.346;9.522;2023-05-24T04:51:10;11.43;;;4.18;;
10440;SDS011;5268;49.346;9.522;2023-05-24T04:56:13;8.45;;;3.80;;
10440;SDS011;5268;49.346;9.522;2023-05-24T05:01:16;9.18;;;4.10;;
10440;SDS011;5268;49.346;9.522;2023-05-24T05:06:18;8.10;;;4.00;;
10440;SDS011;5268;49.346;9.522;2023-05-24T05:11:22;9.63;;;3.92;;
10440;SDS011;5268;49.346;9.522;2023-05-24T05:16:25;10.80;;;4.05;;
10440;SDS011;5268;49.346;9.522;2023-05-24T05:21:27;8.65;;;4.10;;
10440;SDS011;5268;49.346;9.522;2023-05-24T05:26:30;7.20;;;3.85;;
10440;SDS011;5268;49.346;9.522;2023-05-24T05:31:32;8.40;;;3.67;;
10440;SDS011;5268;49.346;9.522;2023-05-24T05:36:35;10.35;;;3.78;;
10440;SDS011;5268;49.346;9.522;2023-05-24T05:41:41;11.68;;;4.07;;
10440;SDS011;5268;49.346;9.522;2023-05-24T05:46:44;8.80;;;3.60;;
10440;SDS011;5268;49.346;9.522;2023-05-24T05:51:46;8.60;;;3.50;;
10440;SDS011;5268;49.346;9.522;2023-05-24T05:56:50;8.65;;;3.85;;
10440;SDS011;5268;49.346;9.522;2023-05-24T06:01:52;9.30;;;3.22;;
10440;SDS011;5268;49.346;9.522;2023-05-24T06:10:27;7.93;;;3.63;;
10440;SDS011;5268;49.346;9.522;2023-05-24T06:15:30;9.73;;;3.67;;
10440;SDS011;5268;49.346;9.522;2023-05-24T06:20:32;10.15;;;3.45;;
10440;SDS011;5268;49.346;9.522;2023-05-24T06:25:37;8.95;;;3.80;;
10440;SDS011;5268;49.346;9.522;2023-05-24T06:30:39;9.35;;;3.63;;
10440;SDS011;5268;49.346;9.522;2023-05-24T06:35:41;11.30;;;3.78;;
10440;SDS011;5268;49.346;9.522;2023-05-24T06:40:45;9.60;;;3.67;;
10440;SDS011;5268;49.346;9.522;2023-05-24T06:45:47;9.95;;;3.58;;
10440;SDS011;5268;49.346;9.522;2023-05-24T06:50:49;8.65;;;3.42;;
10440;SDS011;5268;49.346;9.522;2023-05-24T06:55:53;9.88;;;4.00;;
10440;SDS011;5268;49.346;9.522;2023-05-24T07:00:55;11.07;;;3.60;;
10440;SDS011;5268;49.346;9.522;2023-05-24T07:05:57;12.73;;;3.85;;
10440;SDS011;5268;49.346;9.522;2023-05-24T07:11:01;9.63;;;3.58;;
10440;SDS011;5268;49.346;9.522;2023-05-24T07:16:03;10.55;;;3.75;;
10440;SDS011;5268;49.346;9.522;2023-05-24T07:21:06;10.00;;;3.60;;
10440;SDS011;5268;49.346;9.522;2023-05-24T07:26:10;9.50;;;3.28;;
10440;SDS011;5268;49.346;9.522;2023-05-24T07:31:12;10.77;;;3.70;;
10440;SDS011;5268;49.346;9.522;2023-05-24T07:36:15;9.43;;;3.38;;
10440;SDS011;5268;49.346;9.522;2023-05-24T07:41:19;10.95;;;3.70;;
10440;SDS011;5268;49.346;9.522;2023-05-24T07:46:25;10.52;;;3.92;;
10440;SDS011;5268;49.346;9.522;2023-05-24T07:51:27;8.07;;;4.05;;
10440;SDS011;5268;49.346;9.522;2023-05-24T07:56:32;10.70;;;4.00;;
10440;SDS011;5268;49.346;9.522;2023-05-24T08:01:35;9.15;;;3.97;;
10440;SDS011;5268;49.346;9.522;2023-05-24T08:06:37;8.15;;;3.50;;
10440;SDS011;5268;49.346;9.522;2023-05-24T08:11:40;9.65;;;4.10;;
10440;SDS011;5268;49.346;9.522;2023-05-24T08:16:42;10.82;;;4.25;;
10440;SDS011;5268;49.346;9.522;2023-05-24T08:21:44;10.85;;;4.20;;
10440;SDS011;5268;49.346;9.522;2023-05-24T08:26:48;11.07;;;3.92;;
10440;SDS011;5268;49.346;9.522;2023-05-24T08:31:51;10.50;;;3.58;;
10440;SDS011;5268;49.346;9.522;2023-05-24T08:36:53;12.88;;;4.47;;
10440;SDS011;5268;49.346;9.522;2023-05-24T08:41:57;11.65;;;3.67;;
10440;SDS011;5268;49.346;9.522;2023-05-24T08:46:59;20.80;;;4.13;;
10440;SDS011;5268;49.346;9.522;2023-05-24T08:52:02;9.80;;;4.45;;
10440;SDS011;5268;49.346;9.522;2023-05-24T08:57:08;11.32;;;4.80;;
10440;SDS011;5268;49.346;9.522;2023-05-24T09:02:12;11.50;;;4.60;;
10440;SDS011;5268;49.346;9.522;2023-05-24T09:07:16;10.20;;;4.18;;
10440;SDS011;5268;49.346;9.522;2023-05-24T09:12:21;11.52;;;4.22;;
10440;SDS011;5268;49.346;9.522;2023-05-24T09:17:25;9.30;;;4.30;;
10440;SDS011;5268;49.346;9.522;2023-05-24T09:22:28;11.80;;;4.00;;
10440;SDS011;5268;49.346;9.522;2023-05-24T09:27:31;7.20;;;4.03;;
10440;SDS011;5268;49.346;9.522;2023-05-24T09:32:34;9.50;;;4.40;;
10440;SDS011;5268;49.346;9.522;2023-05-24T09:37:36;11.48;;;4.00;;
10440;SDS011;5268;49.346;9.522;2023-05-24T09:42:40;8.77;;;4.05;;
10440;SDS011;5268;49.346;9.522;2023-05-24T09:47:43;7.57;;;3.85;;
10440;SDS011;5268;49.346;9.522;2023-05-24T09:52:45;11.23;;;4.38;;
10440;SDS011;5268;49.346;9.522;2023-05-24T09:57:50;10.50;;;4.00;;
10440;SDS011;5268;49.346;9.522;2023-05-24T10:03:02;11.20;;;4.43;;
10440;SDS011;5268;49.346;9.522;2023-05-24T10:08:06;9.98;;;4.22;;
10440;SDS011;5268;49.346;9.522;2023-05-24T10:13:11;11.30;;;4.63;;
10440;SDS011;5268;49.346;9.522;2023-05-24T10:18:14;9.90;;;4.47;;
10440;SDS011;5268;49.346;9.522;2023-05-24T10:23:18;10.13;;;4.10;;
10440;SDS011;5268;49.346;9.522;2023-05-24T10:28:23;11.27;;;3.75;;
10440;SDS011;5268;49.346;9.522;2023-05-24T10:33:25;7.95;;;4.82;;
10440;SDS011;5268;49.346;9.522;2023-05-24T10:38:28;8.43;;;3.90;;
10440;SDS011;5268;49.346;9.522;2023-05-24T10:43:31;8.95;;;3.90;;
10440;SDS011;5268;49.346;9.522;2023-05-24T10:48:36;9.57;;;4.00;;
10440;SDS011;5268;49.346;9.522;2023-05-24T10:53:41;6.65;;;3.92;;
10440;SDS011;5268;49.346;9.522;2023-05-24T10:58:58;7.97;;;3.50;;
10440;SDS011;5268;49.346;9.522;2023-05-24T11:04:07;8.68;;;3.22;;
10440;SDS011;5268;49.346;9.522;2023-05-24T11:09:10;9.35;;;3.28;;
10440;SDS011;5268;49.346;9.522;2023-05-24T11:14:14;10.60;;;3.05;;
10440;SDS011;5268;49.346;9.522;2023-05-24T11:19:20;6.60;;;3.10;;
10440;SDS011;5268;49.346;9.522;2023-05-24T11:24:24;6.60;;;3.13;;
10440;SDS011;5268;49.346;9.522;2023-05-24T11:29:29;10.27;;;3.00;;
10440;SDS011;5268;49.346;9.522;2023-05-24T11:34:31;7.45;;;3.40;;
10440;SDS011;5268;49.346;9.522;2023-05-24T11:39:34;6.72;;;2.70;;
10440;SDS011;5268;49.346;9.522;2023-05-24T11:44:41;6.90;;;2.70;;
10440;SDS011;5268;49.346;9.522;2023-05-24T11:49:48;7.65;;;2.72;;
10440;SDS011;5268;49.346;9.522;2023-05-24T11:54:50;7.43;;;2.75;;
10440;SDS011;5268;49.346;9.522;2023-05-24T11:59:55;7.93;;;2.83;;
10440;SDS011;5268;49.346;9.522;2023-05-24T12:05:05;7.53;;;2.88;;
10440;SDS011;5268;49.346;9.522;2023-05-24T12:10:09;6.75;;;2.72;;
10440;SDS011;5268;49.346;9.522;2023-05-24T12:15:12;6.95;;;2.67;;
10440;SDS011;5268;49.346;9.522;2023-05-24T12:20:17;6.20;;;2.60;;
10440;SDS011;5268;49.346;9.522;2023-05-24T12:25:21;7.15;;;2.70;;
10440;SDS011;5268;49.346;9.522;2023-05-24T12:30:27;5.68;;;2.42;;
10440;SDS011;5268;49.346;9.522;2023-05-24T12:35:30;8.98;;;2.83;;
10440;SDS011;5268;49.346;9.522;2023-05-24T12:40:32;5.53;;;2.50;;
10440;SDS011;5268;49.346;9.522;2023-05-24T12:45:36;8.35;;;2.70;;
10440;SDS011;5268;49.346;9.522;2023-05-24T12:50:37;5.20;;;2.28;;
10440;SDS011;5268;49.346;9.522;2023-05-24T12:55:40;7.47;;;2.65;;
10440;SDS011;5268;49.346;9.522;2023-05-24T13:00:43;6.70;;;2.70;;
10440;SDS011;5268;49.346;9.522;2023-05-24T13:05:49;4.38;;;2.15;;
10440;SDS011;5268;49.346;9.522;2023-05-24T13:10:53;6.38;;;2.20;;
10440;SDS011;5268;49.346;9.522;2023-05-24T13:15:57;10.23;;;2.63;;
10440;SDS011;5268;49.346;9.522;2023-05-24T13:21:00;5.63;;;2.63;;
10440;SDS011;5268;49.346;9.522;2023-05-24T13:26:04;6.43;;;2.30;;
10440;SDS011;5268;49.346;9.522;2023-05-24T13:31:09;5.47;;;2.53;;
10440;SDS011;5268;49.346;9.522;2023-05-24T13:36:13;5.43;;;2.20;;
10440;SDS011;5268;49.346;9.522;2023-05-24T13:41:16;5.07;;;2.20;;
10440;SDS011;5268;49.346;9.522;2023-05-24T13:46:20;5.45;;;2.50;;
10440;SDS011;5268;49.346;9.522;2023-05-24T13:51:23;7.00;;;2.28;;
10440;SDS011;5268;49.346;9.522;2023-05-24T13:56:26;6.38;;;2.17;;
10440;SDS011;5268;49.346;9.522;2023-05-24T14:01:33;3.53;;;2.03;;
10440;SDS011;5268;49.346;9.522;2023-05-24T14:06:36;4.93;;;2.20;;
10440;SDS011;5268;49.346;9.522;2023-05-24T14:11:38;5.45;;;2.20;;
10440;SDS011;5268;49.346;9.522;2023-05-24T14:16:41;3.78;;;1.80;;
10440;SDS011;5268;49.346;9.522;2023-05-24T14:21:43;5.40;;;1.85;;
10440;SDS011;5268;49.346;9.522;2023-05-24T14:26:45;5.25;;;1.90;;
10440;SDS011;5268;49.346;9.522;2023-05-24T14:31:49;5.22;;;2.17;;
10440;SDS011;5268;49.346;9.522;2023-05-24T14:36:51;3.60;;;1.70;;
10440;SDS011;5268;49.346;9.522;2023-05-24T14:41:54;5.90;;;2.28;;
10440;SDS011;5268;49.346;9.522;2023-05-24T14:46:57;5.72;;;1.85;;
10440;SDS011;5268;49.346;9.522;2023-05-24T14:52:00;4.75;;;2.22;;
10440;SDS011;5268;49.346;9.522;2023-05-24T14:57:03;5.03;;;2.00;;
10440;SDS011;5268;49.346;9.522;2023-05-24T15:02:08;4.30;;;2.03;;
10440;SDS011;5268;49.346;9.522;2023-05-24T15:07:10;4.55;;;2.03;;
10440;SDS011;5268;49.346;9.522;2023-05-24T15:12:12;4.57;;;2.10;;
10440;SDS011;5268;49.346;9.522;2023-05-24T15:17:15;3.50;;;1.73;;
10440;SDS011;5268;49.346;9.522;2023-05-24T15:22:17;5.22;;;2.10;;
10440;SDS011;5268;49.346;9.522;2023-05-24T15:27:19;4.78;;;1.80;;
10440;SDS011;5268;49.346;9.522;2023-05-24T15:32:22;5.68;;;1.88;;
10440;SDS011;5268;49.346;9.522;2023-05-24T15:37:25;5.03;;;2.20;;
10440;SDS011;5268;49.346;9.522;2023-05-24T15:42:27;5.07;;;1.98;;
10440;SDS011;5268;49.346;9.522;2023-05-24T15:47:31;3.40;;;1.65;;
10440;SDS011;5268;49.346;9.522;2023-05-24T15:52:38;3.63;;;1.50;;
10440;SDS011;5268;49.346;9.522;2023-05-24T15:57:40;5.78;;;2.10;;
10440;SDS011;5268;49.346;9.522;2023-05-24T16:02:43;4.45;;;1.95;;
10440;SDS011;5268;49.346;9.522;2023-05-24T16:07:45;5.50;;;2.10;;
10440;SDS011;5268;49.346;9.522;2023-05-24T16:12:47;4.40;;;2.33;;
10440;SDS011;5268;49.346;9.522;2023-05-24T16:17:51;4.88;;;2.15;;
10440;SDS011;5268;49.346;9.522;2023-05-24T16:22:53;5.70;;;2.90;;
10440;SDS011;5268;49.346;9.522;2023-05-24T16:27:55;5.68;;;2.60;;
10440;SDS011;5268;49.346;9.522;2023-05-24T16:32:58;5.70;;;2.33;;
10440;SDS011;5268;49.346;9.522;2023-05-24T16:38:00;13.38;;;8.82;;
10440;SDS011;5268;49.346;9.522;2023-05-24T16:43:02;9.75;;;4.10;;
10440;SDS011;5268;49.346;9.522;2023-05-24T16:48:06;6.47;;;2.50;;
10440;SDS011;5268;49.346;9.522;2023-05-24T16:53:08;6.40;;;2.42;;
10440;SDS011;5268;49.346;9.522;2023-05-24T16:58:09;6.80;;;2.60;;
10440;SDS011;5268;49.346;9.522;2023-05-24T17:03:13;6.65;;;3.17;;
10440;SDS011;5268;49.346;9.522;2023-05-24T17:08:16;6.13;;;2.60;;
10440;SDS011;5268;49.346;9.522;2023-05-24T17:13:19;6.65;;;2.60;;
10440;SDS011;5268;49.346;9.522;2023-05-24T17:18:23;6.50;;;2.70;;
10440;SDS011;5268;49.346;9.522;2023-05-24T17:23:28;9.23;;;2.67;;
10440;SDS011;5268;49.346;9.522;2023-05-24T17:28:32;7.57;;;2.67;;
10440;SDS011;5268;49.346;9.522;2023-05-24T17:33:36;7.80;;;2.80;;
10440;SDS011;5268;49.346;9.522;2023-05-24T17:38:38;8.32;;;2.75;;
10440;SDS011;5268;49.346;9.522;2023-05-24T17:43:40;7.75;;;2.83;;
10440;SDS011;5268;49.346;9.522;2023-05-24T17:48:44;6.65;;;2.72;;
10440;SDS011;5268;49.346;9.522;2023-05-24T17:53:46;12.02;;;4.18;;
10440;SDS011;5268;49.346;9.522;2023-05-24T17:58:48;8.95;;;2.92;;
10440;SDS011;5268;49.346;9.522;2023-05-24T18:03:52;7.50;;;3.33;;
10440;SDS011;5268;49.346;9.522;2023-05-24T18:08:54;7.63;;;2.67;;
10440;SDS011;5268;49.346;9.522;2023-05-24T18:13:57;7.88;;;3.13;;
10440;SDS011;5268;49.346;9.522;2023-05-24T18:19:00;7.03;;;3.08;;
10440;SDS011;5268;49.346;9.522;2023-05-24T18:24:03;7.38;;;3.28;;
10440;SDS011;5268;49.346;9.522;2023-05-24T18:29:05;9.45;;;3.38;;
10440;SDS011;5268;49.346;9.522;2023-05-24T18:34:08;7.65;;;3.50;;
10440;SDS011;5268;49.346;9.522;2023-05-24T18:39:11;7.57;;;3.35;;
10440;SDS011;5268;49.346;9.522;2023-05-24T18:44:13;8.50;;;3.20;;
10440;SDS011;5268;49.346;9.522;2023-05-24T18:49:16;7.07;;;3.30;;
10440;SDS011;5268;49.346;9.522;2023-05-24T18:54:20;9.02;;;3.58;;
10440;SDS011;5268;49.346;9.522;2023-05-24T18:59:22;8.98;;;3.72;;
10440;SDS011;5268;49.346;9.522;2023-05-24T19:04:29;6.93;;;2.97;;
10440;SDS011;5268;49.346;9.522;2023-05-24T19:09:31;6.85;;;3.15;;
10440;SDS011;5268;49.346;9.522;2023-05-24T19:14:33;6.85;;;2.75;;
10440;SDS011;5268;49.346;9.522;2023-05-24T19:19:37;6.82;;;2.67;;
10440;SDS011;5268;49.346;9.522;2023-05-24T19:24:39;5.15;;;2.30;;
10440;SDS011;5268;49.346;9.522;2023-05-24T19:29:41;5.65;;;2.85;;
10440;SDS011;5268;49.346;9.522;2023-05-24T19:34:45;8.38;;;2.70;;
10440;SDS011;5268;49.346;9.522;2023-05-24T19:39:46;9.88;;;2.97;;
10440;SDS011;5268;49.346;9.522;2023-05-24T19:44:50;9.70;;;3.10;;
10440;SDS011;5268;49.346;9.522;2023-05-24T19:49:54;8.68;;;3.53;;
10440;SDS011;5268;49.346;9.522;2023-05-24T19:54:56;8.93;;;3.58;;
10440;SDS011;5268;49.346;9.522;2023-05-24T19:59:58;6.47;;;3.10;;
10440;SDS011;5268;49.346;9.522;2023-05-24T20:05:02;8.77;;;3.22;;
10440;SDS011;5268;49.346;9.522;2023-05-24T20:10:05;8.15;;;3.17;;
10440;SDS011;5268;49.346;9.522;2023-05-24T20:15:08;8.73;;;3.70;;
10440;SDS011;5268;49.346;9.522;2023-05-24T20:20:12;8.82;;;3.80;;
10440;SDS011;5268;49.346;9.522;2023-05-24T20:25:15;8.07;;;3.22;;
10440;SDS011;5268;49.346;9.522;2023-05-24T20:30:17;7.95;;;4.00;;
10440;SDS011;5268;49.346;9.522;2023-05-24T20:35:20;11.93;;;4.43;;
10440;SDS011;5268;49.346;9.522;2023-05-24T20:40:23;9.77;;;4.47;;
10440;SDS011;5268;49.346;9.522;2023-05-24T20:45:25;9.25;;;4.50;;
10440;SDS011;5268;49.346;9.522;2023-05-24T20:50:28;9.57;;;4.38;;
10440;SDS011;5268;49.346;9.522;2023-05-24T20:55:30;8.75;;;3.72;;
10440;SDS011;5268;49.346;9.522;2023-05-24T21:00:32;11.35;;;5.50;;
10440;SDS011;5268;49.346;9.522;2023-05-24T21:05:36;15.73;;;10.55;;
10440;SDS011;5268;49.346;9.522;2023-05-24T21:10:39;8.98;;;5.65;;
10440;SDS011;5268;49.346;9.522;2023-05-24T21:15:41;11.70;;;5.15;;
10440;SDS011;5268;49.346;9.522;2023-05-24T21:20:44;8.40;;;5.03;;
10440;SDS011;5268;49.346;9.522;2023-05-24T21:25:46;11.18;;;5.80;;
10440;SDS011;5268;49.346;9.522;2023-05-24T21:30:48;11.40;;;6.22;;
10440;SDS011;5268;49.346;9.522;2023-05-24T21:35:52;9.30;;;4.82;;
10440;SDS011;5268;49.346;9.522;2023-05-24T21:40:53;11.95;;;5.63;;
10440;SDS011;5268;49.346;9.522;2023-05-24T21:45:55;12.35;;;6.18;;
10440;SDS011;5268;49.346;9.522;2023-05-24T21:50:59;11.20;;;5.72;;
